CSC8182 ZSZS-ZSCN
Flight info
| Callsign | CSC8182 |
|---|---|
| Flight time | 1h 43m |
| Altitude | 32100 |
| Route | PONAB W13 LASAN G327 JTN W583 SUF W167 SASAN R343 ESBAG W581 SNQ W546 OREVO W164 VILID V65 IKUBA W50 XSH W105 LAPEN |
| Aircraft | A320/M-SDE3FGHIRWY/LB1 |
Departure
| Time | 2026-04-15 08:24 |
|---|---|
| Airport | Zhoushan Putuoshan International Airport (ZSZS) |
Arrival
| Time | 2026-04-15 10:07 |
|---|---|
| Airport | Nanchang Changbei International Airport (ZSCN) |
| Time | Latitude | Longitude | Altitude | Speed | Heading |
|---|---|---|---|---|---|
| 2026-04-15 08:03 | 29.93647 | 122.35830 | 36 ft | 0 kts | 266° |
| 2026-04-15 08:13 | 29.93647 | 122.35835 | 36 ft | 2 kts | 266° |
| 2026-04-15 08:13 | 29.93649 | 122.35858 | 37 ft | 3 kts | 264° |
| 2026-04-15 08:14 | 29.93651 | 122.35881 | 37 ft | 3 kts | 263° |
| 2026-04-15 08:14 | 29.93654 | 122.35904 | 39 ft | 3 kts | 260° |
| 2026-04-15 08:14 | 29.93657 | 122.35926 | 42 ft | 2 kts | 256° |
| 2026-04-15 08:14 | 29.93659 | 122.35933 | 42 ft | 1 kts | 256° |
| 2026-04-15 08:17 | 29.93658 | 122.35932 | 42 ft | 1 kts | 255° |
| 2026-04-15 08:17 | 29.93647 | 122.35931 | 41 ft | 3 kts | 180° |
| 2026-04-15 08:17 | 29.93595 | 122.35938 | 41 ft | 11 kts | 173° |
| 2026-04-15 08:18 | 29.93510 | 122.35951 | 40 ft | 13 kts | 174° |
| 2026-04-15 08:18 | 29.93455 | 122.35997 | 42 ft | 10 kts | 104° |
| 2026-04-15 08:18 | 29.93409 | 122.36041 | 44 ft | 11 kts | 174° |
| 2026-04-15 08:18 | 29.93284 | 122.36057 | 43 ft | 21 kts | 171° |
| 2026-04-15 08:19 | 29.93135 | 122.36076 | 43 ft | 22 kts | 185° |
| 2026-04-15 08:19 | 29.92979 | 122.36084 | 45 ft | 23 kts | 175° |
| 2026-04-15 08:19 | 29.92819 | 122.36101 | 48 ft | 23 kts | 173° |
| 2026-04-15 08:19 | 29.92659 | 122.36119 | 50 ft | 23 kts | 174° |
| 2026-04-15 08:20 | 29.92491 | 122.36135 | 50 ft | 25 kts | 174° |
| 2026-04-15 08:20 | 29.92342 | 122.36149 | 51 ft | 14 kts | 174° |
| 2026-04-15 08:20 | 29.92308 | 122.36226 | 53 ft | 8 kts | 85° |
| 2026-04-15 08:20 | 29.92309 | 122.36229 | 54 ft | 0 kts | 85° |
| 2026-04-15 08:23 | 29.92313 | 122.36286 | 55 ft | 19 kts | 85° |
| 2026-04-15 08:23 | 29.92372 | 122.36338 | 52 ft | 12 kts | 354° |
| 2026-04-15 08:23 | 29.92598 | 122.36316 | 54 ft | 65 kts | 355° |
| 2026-04-15 08:24 | 29.93251 | 122.36247 | 47 ft | 120 kts | 354° |
| 2026-04-15 08:24 | 29.94211 | 122.36150 | 128 ft | 151 kts | 356° |
| 2026-04-15 08:24 | 29.95218 | 122.36051 | 761 ft | 143 kts | 357° |
| 2026-04-15 08:24 | 29.96209 | 122.35925 | 1272 ft | 145 kts | 355° |
| 2026-04-15 08:25 | 29.97271 | 122.35783 | 1470 ft | 164 kts | 354° |
| 2026-04-15 08:25 | 29.98449 | 122.35629 | 1820 ft | 177 kts | 354° |
| 2026-04-15 08:25 | 29.99748 | 122.35537 | 2086 ft | 197 kts | 1° |
| 2026-04-15 08:25 | 30.01160 | 122.35624 | 2508 ft | 210 kts | 5° |
| 2026-04-15 08:26 | 30.02617 | 122.35785 | 3276 ft | 209 kts | 6° |
| 2026-04-15 08:26 | 30.04068 | 122.35960 | 4003 ft | 211 kts | 5° |
| 2026-04-15 08:26 | 30.05520 | 122.36136 | 4713 ft | 214 kts | 4° |
| 2026-04-15 08:26 | 30.07013 | 122.36313 | 5372 ft | 218 kts | 3° |
| 2026-04-15 08:27 | 30.08533 | 122.36487 | 6037 ft | 222 kts | 2° |
| 2026-04-15 08:27 | 30.10080 | 122.36661 | 6704 ft | 225 kts | 1° |
| 2026-04-15 08:27 | 30.11648 | 122.36835 | 7354 ft | 228 kts | 1° |
| 2026-04-15 08:27 | 30.13234 | 122.37013 | 8019 ft | 231 kts | 1° |
| 2026-04-15 08:28 | 30.14845 | 122.37192 | 8696 ft | 234 kts | 1° |
| 2026-04-15 08:28 | 30.16473 | 122.37373 | 9373 ft | 237 kts | 0° |
| 2026-04-15 08:28 | 30.18123 | 122.37557 | 10025 ft | 240 kts | 0° |
| 2026-04-15 08:28 | 30.19794 | 122.37747 | 10636 ft | 243 kts | 0° |
| 2026-04-15 08:29 | 30.21489 | 122.37940 | 11254 ft | 246 kts | 0° |
| 2026-04-15 08:29 | 30.23206 | 122.38133 | 11876 ft | 249 kts | 0° |
| 2026-04-15 08:29 | 30.24939 | 122.38326 | 12511 ft | 252 kts | 360° |
| 2026-04-15 08:29 | 30.26737 | 122.38477 | 12862 ft | 269 kts | 358° |
| 2026-04-15 08:30 | 30.28688 | 122.38577 | 13027 ft | 292 kts | 357° |
| 2026-04-15 08:30 | 30.30799 | 122.38664 | 13168 ft | 315 kts | 357° |
| 2026-04-15 08:30 | 30.33063 | 122.38757 | 13295 ft | 336 kts | 358° |
| 2026-04-15 08:30 | 30.35471 | 122.38860 | 13439 ft | 356 kts | 358° |
| 2026-04-15 08:31 | 30.38007 | 122.38978 | 13570 ft | 374 kts | 358° |
| 2026-04-15 08:31 | 30.40665 | 122.39117 | 13743 ft | 390 kts | 359° |
| 2026-04-15 08:31 | 30.43400 | 122.39269 | 14145 ft | 396 kts | 359° |
| 2026-04-15 08:31 | 30.46164 | 122.39427 | 14626 ft | 399 kts | 359° |
| 2026-04-15 08:32 | 30.48949 | 122.39584 | 15120 ft | 402 kts | 359° |
| 2026-04-15 08:32 | 30.51757 | 122.39742 | 15602 ft | 405 kts | 359° |
| 2026-04-15 08:32 | 30.54582 | 122.39897 | 16092 ft | 408 kts | 358° |
| 2026-04-15 08:32 | 30.57429 | 122.40049 | 16571 ft | 411 kts | 358° |
| 2026-04-15 08:33 | 30.60295 | 122.40200 | 17061 ft | 414 kts | 358° |
| 2026-04-15 08:33 | 30.63183 | 122.40356 | 17548 ft | 417 kts | 358° |
| 2026-04-15 08:33 | 30.66050 | 122.40513 | 18012 ft | 420 kts | 358° |
| 2026-04-15 08:33 | 30.68976 | 122.40676 | 18450 ft | 423 kts | 358° |
| 2026-04-15 08:34 | 30.71930 | 122.40842 | 18855 ft | 426 kts | 358° |
| 2026-04-15 08:34 | 30.74900 | 122.41009 | 19249 ft | 429 kts | 358° |
| 2026-04-15 08:34 | 30.77890 | 122.41180 | 19644 ft | 432 kts | 358° |
| 2026-04-15 08:34 | 30.80901 | 122.41353 | 20035 ft | 435 kts | 358° |
| 2026-04-15 08:35 | 30.83941 | 122.41527 | 20428 ft | 438 kts | 358° |
| 2026-04-15 08:35 | 30.86997 | 122.41700 | 20808 ft | 441 kts | 358° |
| 2026-04-15 08:35 | 30.90067 | 122.41813 | 21167 ft | 441 kts | 352° |
| 2026-04-15 08:35 | 30.93045 | 122.41153 | 21510 ft | 432 kts | 335° |
| 2026-04-15 08:36 | 30.95676 | 122.39555 | 21849 ft | 424 kts | 319° |
| 2026-04-15 08:36 | 30.97781 | 122.37200 | 22199 ft | 417 kts | 303° |
| 2026-04-15 08:36 | 30.99226 | 122.34308 | 22546 ft | 413 kts | 289° |
| 2026-04-15 08:36 | 30.99938 | 122.31086 | 22893 ft | 410 kts | 274° |
| 2026-04-15 08:37 | 31.00012 | 122.27768 | 23250 ft | 411 kts | 269° |
| 2026-04-15 08:37 | 31.00099 | 122.24434 | 23605 ft | 413 kts | 274° |
| 2026-04-15 08:37 | 31.00528 | 122.21112 | 23920 ft | 415 kts | 277° |
| 2026-04-15 08:37 | 31.00988 | 122.17788 | 24260 ft | 416 kts | 277° |
| 2026-04-15 08:38 | 31.01451 | 122.14470 | 24600 ft | 416 kts | 277° |
| 2026-04-15 08:38 | 31.01919 | 122.11138 | 24962 ft | 416 kts | 277° |
| 2026-04-15 08:38 | 31.02384 | 122.07821 | 25458 ft | 413 kts | 277° |
| 2026-04-15 08:38 | 31.02843 | 122.04534 | 25995 ft | 409 kts | 277° |
| 2026-04-15 08:39 | 31.03293 | 122.01279 | 26531 ft | 405 kts | 277° |
| 2026-04-15 08:39 | 31.03739 | 121.98045 | 27075 ft | 402 kts | 277° |
| 2026-04-15 08:39 | 31.04177 | 121.94843 | 27626 ft | 398 kts | 276° |
| 2026-04-15 08:39 | 31.04610 | 121.91672 | 28188 ft | 394 kts | 276° |
| 2026-04-15 08:40 | 31.05039 | 121.88529 | 28749 ft | 391 kts | 276° |
| 2026-04-15 08:40 | 31.05465 | 121.85414 | 29313 ft | 387 kts | 276° |
| 2026-04-15 08:40 | 31.05887 | 121.82325 | 29889 ft | 384 kts | 276° |
| 2026-04-15 08:40 | 31.06305 | 121.79266 | 30387 ft | 380 kts | 276° |
| 2026-04-15 08:41 | 31.06714 | 121.76266 | 30849 ft | 377 kts | 276° |
| 2026-04-15 08:41 | 31.07123 | 121.73255 | 31311 ft | 374 kts | 276° |
| 2026-04-15 08:41 | 31.07532 | 121.70227 | 31776 ft | 372 kts | 276° |
| 2026-04-15 08:41 | 31.07931 | 121.67252 | 32042 ft | 370 kts | 276° |
| 2026-04-15 08:42 | 31.08326 | 121.64278 | 32092 ft | 375 kts | 276° |
| 2026-04-15 08:42 | 31.09140 | 121.58182 | 32100 ft | 387 kts | 276° |
| 2026-04-15 08:43 | 31.09972 | 121.51951 | 32083 ft | 389 kts | 276° |
| 2026-04-15 08:43 | 31.10809 | 121.45710 | 32078 ft | 389 kts | 276° |
| 2026-04-15 08:44 | 31.11640 | 121.39435 | 32078 ft | 397 kts | 276° |
| 2026-04-15 08:44 | 31.12822 | 121.33103 | 32076 ft | 405 kts | 287° |
| 2026-04-15 08:45 | 31.15266 | 121.27121 | 32073 ft | 409 kts | 291° |
| 2026-04-15 08:45 | 31.17765 | 121.21152 | 32077 ft | 409 kts | 291° |
| 2026-04-15 08:46 | 31.20248 | 121.15176 | 32074 ft | 409 kts | 290° |
| 2026-04-15 08:46 | 31.22724 | 121.09181 | 32071 ft | 409 kts | 291° |
| 2026-04-15 08:47 | 31.25204 | 121.03196 | 32076 ft | 410 kts | 291° |
| 2026-04-15 08:47 | 31.27691 | 120.97194 | 32073 ft | 410 kts | 291° |
| 2026-04-15 08:48 | 31.30154 | 120.91227 | 32071 ft | 410 kts | 291° |
| 2026-04-15 08:48 | 31.32632 | 120.85220 | 32073 ft | 410 kts | 291° |
| 2026-04-15 08:49 | 31.35108 | 120.79201 | 32071 ft | 411 kts | 290° |
| 2026-04-15 08:49 | 31.37578 | 120.73172 | 32071 ft | 411 kts | 290° |
| 2026-04-15 08:50 | 31.40050 | 120.67144 | 32070 ft | 411 kts | 290° |
| 2026-04-15 08:50 | 31.42105 | 120.62121 | 32073 ft | 411 kts | 290° |
| 2026-04-15 08:51 | 31.44577 | 120.56080 | 32072 ft | 411 kts | 290° |
| 2026-04-15 08:51 | 31.47043 | 120.50036 | 32075 ft | 411 kts | 290° |
| 2026-04-15 08:52 | 31.49584 | 120.44024 | 32072 ft | 416 kts | 296° |
| 2026-04-15 08:52 | 31.53392 | 120.38796 | 32070 ft | 426 kts | 307° |
| 2026-04-15 08:53 | 31.57182 | 120.33547 | 32070 ft | 415 kts | 294° |
| 2026-04-15 08:53 | 31.59101 | 120.27324 | 32066 ft | 403 kts | 276° |
| 2026-04-15 08:54 | 31.59490 | 120.20791 | 32064 ft | 402 kts | 271° |
| 2026-04-15 08:54 | 31.59811 | 120.14279 | 32065 ft | 402 kts | 271° |
| 2026-04-15 08:55 | 31.60136 | 120.07729 | 32066 ft | 402 kts | 271° |
| 2026-04-15 08:55 | 31.60450 | 120.01172 | 32065 ft | 403 kts | 271° |
| 2026-04-15 08:56 | 31.60758 | 119.94615 | 32062 ft | 403 kts | 271° |
| 2026-04-15 08:56 | 31.61076 | 119.88058 | 32064 ft | 403 kts | 271° |
| 2026-04-15 08:57 | 31.61389 | 119.81500 | 32067 ft | 402 kts | 271° |
| 2026-04-15 08:57 | 31.61692 | 119.74941 | 32068 ft | 403 kts | 271° |
| 2026-04-15 08:58 | 31.61986 | 119.68384 | 32063 ft | 403 kts | 271° |
| 2026-04-15 08:58 | 31.62708 | 119.58547 | 32068 ft | 404 kts | 274° |
| 2026-04-15 08:59 | 31.63337 | 119.51993 | 32066 ft | 404 kts | 274° |
| 2026-04-15 08:59 | 31.63933 | 119.45474 | 32069 ft | 404 kts | 274° |
| 2026-04-15 09:00 | 31.64498 | 119.38906 | 32070 ft | 404 kts | 273° |
| 2026-04-15 09:00 | 31.65052 | 119.32328 | 32067 ft | 405 kts | 273° |
| 2026-04-15 09:01 | 31.65602 | 119.25752 | 32067 ft | 405 kts | 273° |
| 2026-04-15 09:01 | 31.66149 | 119.19174 | 32056 ft | 405 kts | 273° |
| 2026-04-15 09:02 | 31.66693 | 119.12593 | 32053 ft | 405 kts | 273° |
| 2026-04-15 09:02 | 31.67241 | 119.06009 | 32051 ft | 405 kts | 273° |
| 2026-04-15 09:03 | 31.67788 | 118.99427 | 32046 ft | 405 kts | 273° |
| 2026-04-15 09:03 | 31.67806 | 118.92841 | 32037 ft | 404 kts | 265° |
| 2026-04-15 09:04 | 31.67453 | 118.86261 | 32036 ft | 404 kts | 265° |
| 2026-04-15 09:04 | 31.67103 | 118.79678 | 32031 ft | 404 kts | 265° |
| 2026-04-15 09:05 | 31.66740 | 118.73091 | 32034 ft | 404 kts | 265° |
| 2026-04-15 09:05 | 31.66546 | 118.66529 | 32038 ft | 405 kts | 268° |
| 2026-04-15 09:06 | 31.66613 | 118.59911 | 32044 ft | 406 kts | 269° |
| 2026-04-15 09:06 | 31.66690 | 118.53289 | 32045 ft | 406 kts | 269° |
| 2026-04-15 09:07 | 31.66708 | 118.46673 | 32049 ft | 405 kts | 268° |
| 2026-04-15 09:07 | 31.66699 | 118.40044 | 32043 ft | 406 kts | 268° |
| 2026-04-15 09:08 | 31.66690 | 118.33420 | 32043 ft | 406 kts | 268° |
| 2026-04-15 09:08 | 31.66682 | 118.26780 | 32043 ft | 406 kts | 268° |
| 2026-04-15 09:09 | 31.66671 | 118.20141 | 32044 ft | 407 kts | 268° |
| 2026-04-15 09:09 | 31.66293 | 118.13535 | 32038 ft | 406 kts | 263° |
| 2026-04-15 09:10 | 31.65665 | 118.06986 | 32034 ft | 406 kts | 263° |
| 2026-04-15 09:10 | 31.65034 | 118.00399 | 32035 ft | 406 kts | 263° |
| 2026-04-15 09:11 | 31.64396 | 117.93816 | 32036 ft | 406 kts | 263° |
| 2026-04-15 09:11 | 31.63759 | 117.87221 | 32032 ft | 406 kts | 263° |
| 2026-04-15 09:12 | 31.63118 | 117.80627 | 32029 ft | 407 kts | 263° |
| 2026-04-15 09:12 | 31.62467 | 117.74033 | 32032 ft | 407 kts | 263° |
| 2026-04-15 09:13 | 31.61813 | 117.67436 | 32035 ft | 407 kts | 263° |
| 2026-04-15 09:13 | 31.61153 | 117.60851 | 32032 ft | 407 kts | 263° |
| 2026-04-15 09:14 | 31.60263 | 117.54306 | 32029 ft | 406 kts | 258° |
| 2026-04-15 09:14 | 31.59111 | 117.47816 | 32026 ft | 407 kts | 258° |
| 2026-04-15 09:15 | 31.57958 | 117.41320 | 32029 ft | 407 kts | 258° |
| 2026-04-15 09:15 | 31.56802 | 117.34824 | 32027 ft | 407 kts | 258° |
| 2026-04-15 09:16 | 31.55367 | 117.28460 | 32024 ft | 408 kts | 248° |
| 2026-04-15 09:16 | 31.52596 | 117.22630 | 32020 ft | 410 kts | 242° |
| 2026-04-15 09:17 | 31.49722 | 117.16848 | 32015 ft | 411 kts | 243° |
| 2026-04-15 09:17 | 31.46851 | 117.11066 | 32019 ft | 411 kts | 242° |
| 2026-04-15 09:18 | 31.43962 | 117.05291 | 32016 ft | 411 kts | 242° |
| 2026-04-15 09:18 | 31.41071 | 116.99520 | 32016 ft | 411 kts | 242° |
| 2026-04-15 09:19 | 31.38185 | 116.93759 | 32021 ft | 411 kts | 242° |
| 2026-04-15 09:19 | 31.35300 | 116.87988 | 32023 ft | 411 kts | 242° |
| 2026-04-15 09:20 | 31.32415 | 116.82232 | 32024 ft | 410 kts | 242° |
| 2026-04-15 09:20 | 31.29518 | 116.76474 | 32023 ft | 410 kts | 242° |
| 2026-04-15 09:21 | 31.26626 | 116.70725 | 32030 ft | 410 kts | 242° |
| 2026-04-15 09:21 | 31.23727 | 116.64982 | 32024 ft | 410 kts | 242° |
| 2026-04-15 09:22 | 31.20848 | 116.59289 | 32026 ft | 409 kts | 242° |
| 2026-04-15 09:22 | 31.17955 | 116.53563 | 32030 ft | 409 kts | 242° |
| 2026-04-15 09:23 | 31.15054 | 116.47835 | 32025 ft | 409 kts | 242° |
| 2026-04-15 09:23 | 31.12150 | 116.42110 | 32033 ft | 409 kts | 242° |
| 2026-04-15 09:24 | 31.09244 | 116.36397 | 32031 ft | 409 kts | 242° |
| 2026-04-15 09:24 | 31.06338 | 116.30690 | 32032 ft | 409 kts | 242° |
| 2026-04-15 09:25 | 31.03431 | 116.24986 | 32028 ft | 409 kts | 242° |
| 2026-04-15 09:25 | 31.00524 | 116.19288 | 32033 ft | 409 kts | 242° |
| 2026-04-15 09:26 | 30.97621 | 116.13601 | 32019 ft | 408 kts | 242° |
| 2026-04-15 09:26 | 30.94740 | 116.07963 | 32018 ft | 407 kts | 242° |
| 2026-04-15 09:27 | 30.91829 | 116.02289 | 32016 ft | 408 kts | 242° |
| 2026-04-15 09:27 | 30.88921 | 115.96623 | 32012 ft | 408 kts | 242° |
| 2026-04-15 09:28 | 30.86007 | 115.90963 | 32007 ft | 408 kts | 242° |
| 2026-04-15 09:28 | 30.82623 | 115.85620 | 32001 ft | 410 kts | 237° |
| 2026-04-15 09:29 | 30.79148 | 115.80359 | 32015 ft | 410 kts | 237° |
| 2026-04-15 09:29 | 30.75695 | 115.75134 | 32042 ft | 406 kts | 237° |
| 2026-04-15 09:30 | 30.73983 | 115.72539 | 31809 ft | 402 kts | 237° |
| 2026-04-15 09:30 | 30.72282 | 115.69963 | 31567 ft | 402 kts | 237° |
| 2026-04-15 09:30 | 30.70578 | 115.67382 | 31313 ft | 402 kts | 236° |
| 2026-04-15 09:30 | 30.68871 | 115.64803 | 31072 ft | 404 kts | 236° |
| 2026-04-15 09:31 | 30.67154 | 115.62213 | 30833 ft | 405 kts | 236° |
| 2026-04-15 09:31 | 30.65431 | 115.59617 | 30595 ft | 407 kts | 236° |
| 2026-04-15 09:31 | 30.63702 | 115.57007 | 30361 ft | 408 kts | 235° |
| 2026-04-15 09:31 | 30.61967 | 115.54387 | 30125 ft | 410 kts | 235° |
| 2026-04-15 09:32 | 30.60223 | 115.51759 | 29879 ft | 412 kts | 235° |
| 2026-04-15 09:32 | 30.58469 | 115.49120 | 29607 ft | 413 kts | 235° |
| 2026-04-15 09:32 | 30.56710 | 115.46477 | 29327 ft | 414 kts | 235° |
| 2026-04-15 09:32 | 30.54948 | 115.43832 | 29064 ft | 415 kts | 235° |
| 2026-04-15 09:33 | 30.53178 | 115.41179 | 28785 ft | 416 kts | 235° |
| 2026-04-15 09:33 | 30.51407 | 115.38519 | 28518 ft | 417 kts | 235° |
| 2026-04-15 09:33 | 30.49623 | 115.35868 | 28269 ft | 418 kts | 233° |
| 2026-04-15 09:33 | 30.47530 | 115.33497 | 28003 ft | 425 kts | 222° |
| 2026-04-15 09:34 | 30.45014 | 115.31648 | 27745 ft | 434 kts | 211° |
| 2026-04-15 09:34 | 30.42150 | 115.30440 | 27491 ft | 445 kts | 199° |
| 2026-04-15 09:34 | 30.39093 | 115.29963 | 27243 ft | 457 kts | 188° |
| 2026-04-15 09:34 | 30.35882 | 115.30283 | 26987 ft | 470 kts | 175° |
| 2026-04-15 09:35 | 30.32721 | 115.31429 | 26736 ft | 482 kts | 166° |
| 2026-04-15 09:35 | 30.29590 | 115.32830 | 26488 ft | 483 kts | 166° |
| 2026-04-15 09:35 | 30.26454 | 115.34229 | 26237 ft | 483 kts | 166° |
| 2026-04-15 09:35 | 30.23320 | 115.35623 | 25995 ft | 484 kts | 166° |
| 2026-04-15 09:36 | 30.20167 | 115.37022 | 25753 ft | 484 kts | 166° |
| 2026-04-15 09:36 | 30.17023 | 115.38413 | 25516 ft | 485 kts | 166° |
| 2026-04-15 09:36 | 30.13867 | 115.39809 | 25283 ft | 486 kts | 166° |
| 2026-04-15 09:36 | 30.10753 | 115.41190 | 25037 ft | 471 kts | 166° |
| 2026-04-15 09:37 | 30.07747 | 115.42532 | 24806 ft | 456 kts | 166° |
| 2026-04-15 09:37 | 30.04832 | 115.43836 | 24575 ft | 442 kts | 166° |
| 2026-04-15 09:37 | 30.02006 | 115.45097 | 24348 ft | 429 kts | 167° |
| 2026-04-15 09:37 | 29.99257 | 115.46315 | 24124 ft | 418 kts | 167° |
| 2026-04-15 09:38 | 29.96575 | 115.47495 | 23898 ft | 408 kts | 167° |
| 2026-04-15 09:38 | 29.93988 | 115.48629 | 23678 ft | 399 kts | 168° |
| 2026-04-15 09:38 | 29.91415 | 115.49757 | 23447 ft | 391 kts | 168° |
| 2026-04-15 09:38 | 29.88901 | 115.50861 | 23186 ft | 383 kts | 168° |
| 2026-04-15 09:39 | 29.86434 | 115.51941 | 22919 ft | 375 kts | 168° |
| 2026-04-15 09:39 | 29.84018 | 115.52999 | 22659 ft | 367 kts | 168° |
| 2026-04-15 09:39 | 29.81652 | 115.54037 | 22396 ft | 361 kts | 168° |
| 2026-04-15 09:39 | 29.79319 | 115.55060 | 22144 ft | 358 kts | 168° |
| 2026-04-15 09:40 | 29.77780 | 115.55733 | 21966 ft | 356 kts | 168° |
| 2026-04-15 09:40 | 29.74690 | 115.57081 | 21622 ft | 354 kts | 168° |
| 2026-04-15 09:40 | 29.72390 | 115.58083 | 21374 ft | 353 kts | 168° |
| 2026-04-15 09:40 | 29.70871 | 115.58745 | 21212 ft | 352 kts | 168° |
| 2026-04-15 09:41 | 29.68585 | 115.59744 | 20962 ft | 351 kts | 168° |
| 2026-04-15 09:41 | 29.66304 | 115.60740 | 20717 ft | 350 kts | 168° |
| 2026-04-15 09:41 | 29.64032 | 115.61732 | 20477 ft | 348 kts | 168° |
| 2026-04-15 09:41 | 29.61772 | 115.62723 | 20234 ft | 348 kts | 167° |
| 2026-04-15 09:42 | 29.59513 | 115.63714 | 19992 ft | 347 kts | 167° |
| 2026-04-15 09:42 | 29.57265 | 115.64703 | 19761 ft | 345 kts | 167° |
| 2026-04-15 09:42 | 29.55025 | 115.65687 | 19517 ft | 344 kts | 167° |
| 2026-04-15 09:42 | 29.52790 | 115.66666 | 19279 ft | 343 kts | 167° |
| 2026-04-15 09:43 | 29.50571 | 115.67637 | 19053 ft | 338 kts | 167° |
| 2026-04-15 09:43 | 29.48392 | 115.68595 | 18825 ft | 333 kts | 167° |
| 2026-04-15 09:43 | 29.46246 | 115.69538 | 18596 ft | 328 kts | 167° |
| 2026-04-15 09:43 | 29.44132 | 115.70464 | 18369 ft | 323 kts | 167° |
| 2026-04-15 09:44 | 29.42047 | 115.71374 | 18136 ft | 318 kts | 167° |
| 2026-04-15 09:44 | 29.39990 | 115.72269 | 17872 ft | 314 kts | 167° |
| 2026-04-15 09:44 | 29.37956 | 115.73153 | 17612 ft | 311 kts | 167° |
| 2026-04-15 09:44 | 29.35992 | 115.74159 | 17483 ft | 309 kts | 157° |
| 2026-04-15 09:45 | 29.34230 | 115.75588 | 17096 ft | 317 kts | 144° |
| 2026-04-15 09:45 | 29.32726 | 115.77485 | 16459 ft | 327 kts | 130° |
| 2026-04-15 09:45 | 29.31595 | 115.79769 | 15855 ft | 333 kts | 117° |
| 2026-04-15 09:45 | 29.30699 | 115.82216 | 15253 ft | 333 kts | 116° |
| 2026-04-15 09:46 | 29.29790 | 115.84654 | 14661 ft | 332 kts | 116° |
| 2026-04-15 09:46 | 29.28889 | 115.87053 | 14088 ft | 331 kts | 116° |
| 2026-04-15 09:46 | 29.27976 | 115.89472 | 13499 ft | 330 kts | 116° |
| 2026-04-15 09:46 | 29.27065 | 115.91881 | 12853 ft | 329 kts | 116° |
| 2026-04-15 09:47 | 29.26158 | 115.94283 | 12227 ft | 327 kts | 116° |
| 2026-04-15 09:47 | 29.25259 | 115.96669 | 11582 ft | 326 kts | 116° |
| 2026-04-15 09:47 | 29.24355 | 115.99074 | 10744 ft | 331 kts | 116° |
| 2026-04-15 09:47 | 29.23451 | 116.01488 | 10134 ft | 328 kts | 116° |
| 2026-04-15 09:48 | 29.22525 | 116.03850 | 9527 ft | 322 kts | 121° |
| 2026-04-15 09:48 | 29.21527 | 116.06126 | 8940 ft | 316 kts | 116° |
| 2026-04-15 09:48 | 29.20696 | 116.08426 | 8450 ft | 309 kts | 115° |
| 2026-04-15 09:48 | 29.19900 | 116.10686 | 7953 ft | 303 kts | 115° |
| 2026-04-15 09:49 | 29.19128 | 116.12887 | 7638 ft | 291 kts | 115° |
| 2026-04-15 09:49 | 29.18394 | 116.14991 | 7394 ft | 279 kts | 115° |
| 2026-04-15 09:49 | 29.17691 | 116.17013 | 7156 ft | 269 kts | 115° |
| 2026-04-15 09:49 | 29.17011 | 116.18972 | 6924 ft | 267 kts | 115° |
| 2026-04-15 09:50 | 29.16328 | 116.20936 | 6687 ft | 264 kts | 115° |
| 2026-04-15 09:50 | 29.15650 | 116.22882 | 6457 ft | 262 kts | 115° |
| 2026-04-15 09:50 | 29.14976 | 116.24814 | 6220 ft | 260 kts | 115° |
| 2026-04-15 09:50 | 29.14311 | 116.26712 | 6044 ft | 254 kts | 114° |
| 2026-04-15 09:51 | 29.13656 | 116.28566 | 5871 ft | 248 kts | 114° |
| 2026-04-15 09:51 | 29.13162 | 116.30426 | 5692 ft | 244 kts | 95° |
| 2026-04-15 09:51 | 29.13478 | 116.32290 | 5521 ft | 240 kts | 62° |
| 2026-04-15 09:51 | 29.14583 | 116.33693 | 5345 ft | 238 kts | 35° |
| 2026-04-15 09:52 | 29.15978 | 116.34719 | 5182 ft | 238 kts | 30° |
| 2026-04-15 09:52 | 29.17396 | 116.35671 | 5018 ft | 235 kts | 30° |
| 2026-04-15 09:52 | 29.18811 | 116.36602 | 4917 ft | 234 kts | 30° |
| 2026-04-15 09:52 | 29.20226 | 116.37523 | 4912 ft | 234 kts | 30° |
| 2026-04-15 09:53 | 29.21639 | 116.38438 | 4915 ft | 234 kts | 30° |
| 2026-04-15 09:53 | 29.23056 | 116.39354 | 4915 ft | 234 kts | 30° |
| 2026-04-15 09:53 | 29.24479 | 116.40246 | 4915 ft | 233 kts | 23° |
| 2026-04-15 09:53 | 29.26038 | 116.40524 | 4916 ft | 232 kts | 350° |
| 2026-04-15 09:54 | 29.27573 | 116.39972 | 4911 ft | 232 kts | 336° |
| 2026-04-15 09:54 | 29.29055 | 116.39225 | 4920 ft | 233 kts | 335° |
| 2026-04-15 09:54 | 29.30528 | 116.38452 | 4916 ft | 233 kts | 335° |
| 2026-04-15 09:54 | 29.31995 | 116.37674 | 4917 ft | 233 kts | 334° |
| 2026-04-15 09:55 | 29.33394 | 116.36758 | 4917 ft | 231 kts | 315° |
| 2026-04-15 09:55 | 29.34217 | 116.35216 | 4920 ft | 229 kts | 282° |
| 2026-04-15 09:55 | 29.34320 | 116.33404 | 4918 ft | 229 kts | 266° |
| 2026-04-15 09:55 | 29.34228 | 116.31585 | 4921 ft | 229 kts | 265° |
| 2026-04-15 09:56 | 29.34109 | 116.29766 | 4920 ft | 229 kts | 264° |
| 2026-04-15 09:56 | 29.33986 | 116.27948 | 4923 ft | 229 kts | 264° |
| 2026-04-15 09:56 | 29.33366 | 116.24421 | 4919 ft | 227 kts | 237° |
| 2026-04-15 09:57 | 29.32413 | 116.22986 | 4920 ft | 227 kts | 230° |
| 2026-04-15 09:57 | 29.31427 | 116.21579 | 4923 ft | 226 kts | 230° |
| 2026-04-15 09:57 | 29.30440 | 116.20176 | 4922 ft | 226 kts | 230° |
| 2026-04-15 09:57 | 29.29451 | 116.18771 | 4918 ft | 226 kts | 231° |
| 2026-04-15 09:58 | 29.28462 | 116.17367 | 4917 ft | 226 kts | 230° |
| 2026-04-15 09:58 | 29.27472 | 116.15965 | 4919 ft | 226 kts | 230° |
| 2026-04-15 09:58 | 29.26491 | 116.14581 | 4915 ft | 227 kts | 230° |
| 2026-04-15 09:58 | 29.25496 | 116.13181 | 4926 ft | 227 kts | 230° |
| 2026-04-15 09:59 | 29.24505 | 116.11781 | 4921 ft | 226 kts | 230° |
| 2026-04-15 09:59 | 29.23515 | 116.10382 | 4917 ft | 226 kts | 230° |
| 2026-04-15 09:59 | 29.22522 | 116.08981 | 4923 ft | 226 kts | 230° |
| 2026-04-15 09:59 | 29.21479 | 116.07641 | 4922 ft | 226 kts | 219° |
| 2026-04-15 10:00 | 29.20160 | 116.06676 | 4924 ft | 225 kts | 206° |
| 2026-04-15 10:00 | 29.18729 | 116.05937 | 4925 ft | 225 kts | 202° |
| 2026-04-15 10:00 | 29.17285 | 116.05238 | 4922 ft | 225 kts | 202° |
| 2026-04-15 10:00 | 29.15843 | 116.04538 | 4927 ft | 225 kts | 203° |
| 2026-04-15 10:01 | 29.14401 | 116.03836 | 4925 ft | 225 kts | 203° |
| 2026-04-15 10:01 | 29.12960 | 116.03133 | 4918 ft | 225 kts | 203° |
| 2026-04-15 10:01 | 29.11519 | 116.02436 | 4918 ft | 225 kts | 202° |
| 2026-04-15 10:01 | 29.10070 | 116.01731 | 4743 ft | 227 kts | 203° |
| 2026-04-15 10:02 | 29.08626 | 116.01023 | 4465 ft | 225 kts | 202° |
| 2026-04-15 10:02 | 29.07186 | 116.00320 | 4173 ft | 225 kts | 202° |
| 2026-04-15 10:02 | 29.05757 | 115.99624 | 3871 ft | 220 kts | 202° |
| 2026-04-15 10:02 | 29.04384 | 115.98956 | 3596 ft | 209 kts | 202° |
| 2026-04-15 10:03 | 29.03064 | 115.98314 | 3345 ft | 200 kts | 201° |
| 2026-04-15 10:03 | 29.01839 | 115.97717 | 3090 ft | 183 kts | 201° |
| 2026-04-15 10:03 | 29.00707 | 115.97166 | 2849 ft | 170 kts | 201° |
| 2026-04-15 10:03 | 28.99658 | 115.96657 | 2636 ft | 162 kts | 201° |
| 2026-04-15 10:04 | 28.98634 | 115.96159 | 2424 ft | 156 kts | 200° |
| 2026-04-15 10:04 | 28.97658 | 115.95685 | 2217 ft | 153 kts | 201° |
| 2026-04-15 10:04 | 28.96680 | 115.95210 | 2019 ft | 152 kts | 201° |
| 2026-04-15 10:04 | 28.95712 | 115.94740 | 1825 ft | 151 kts | 201° |
| 2026-04-15 10:05 | 28.94749 | 115.94273 | 1624 ft | 150 kts | 201° |
| 2026-04-15 10:05 | 28.93794 | 115.93809 | 1420 ft | 149 kts | 201° |
| 2026-04-15 10:05 | 28.92844 | 115.93348 | 1221 ft | 148 kts | 202° |
| 2026-04-15 10:05 | 28.91899 | 115.92889 | 1028 ft | 147 kts | 202° |
| 2026-04-15 10:06 | 28.90958 | 115.92433 | 835 ft | 146 kts | 202° |
| 2026-04-15 10:06 | 28.90020 | 115.91985 | 633 ft | 146 kts | 202° |
| 2026-04-15 10:06 | 28.89096 | 115.91525 | 431 ft | 145 kts | 203° |
| 2026-04-15 10:06 | 28.88169 | 115.91073 | 271 ft | 145 kts | 203° |
| 2026-04-15 10:07 | 28.87259 | 115.90627 | 169 ft | 134 kts | 203° |
| 2026-04-15 10:07 | 28.86614 | 115.90325 | 167 ft | 58 kts | 204° |
| 2026-04-15 10:07 | 28.86381 | 115.90210 | 165 ft | 30 kts | 202° |
| 2026-04-15 10:07 | 28.86208 | 115.90127 | 165 ft | 27 kts | 203° |
| 2026-04-15 10:08 | 28.86025 | 115.90054 | 164 ft | 29 kts | 185° |
| 2026-04-15 10:08 | 28.85842 | 115.90065 | 166 ft | 25 kts | 174° |
| 2026-04-15 10:08 | 28.85805 | 115.90127 | 166 ft | 7 kts | 59° |
| 2026-04-15 10:08 | 28.85847 | 115.90164 | 166 ft | 9 kts | 24° |
| 2026-04-15 10:09 | 28.85914 | 115.90198 | 165 ft | 12 kts | 24° |
| 2026-04-15 10:09 | 28.85997 | 115.90239 | 165 ft | 14 kts | 23° |
| 2026-04-15 10:09 | 28.86037 | 115.90294 | 167 ft | 9 kts | 110° |
| 2026-04-15 10:09 | 28.86001 | 115.90367 | 166 ft | 12 kts | 114° |
| 2026-04-15 10:10 | 28.85971 | 115.90461 | 166 ft | 14 kts | 95° |
| 2026-04-15 10:10 | 28.86025 | 115.90523 | 166 ft | 8 kts | 20° |
| 2026-04-15 10:10 | 28.86022 | 115.90553 | 166 ft | 5 kts | 115° |
| 2026-04-15 10:10 | 28.86009 | 115.90597 | 166 ft | 7 kts | 109° |
| 2026-04-15 10:11 | 28.86004 | 115.90614 | 166 ft | 1 kts | 110° |
| 2026-04-15 10:11 | 28.86003 | 115.90616 | 166 ft | 0 kts | 109° |